Time,TemperatureF,DewpointF,PressureIn,WindDirection,WindDirectionDegrees,WindSpeedMPH,WindSpeedGustMPH,Humidity,HourlyPrecipIn,Conditions,Clouds,dailyrainin,SolarRadiationWatts/m^2,SoftwareType,DateUTC
2013-10-28 00:04:00,48.4,26.8,29.22,North,-999,-999.0,-999.0,40,0.03,,,-99.99,0.0,Linux-Irox,2013-10-28 07:04:00,
2013-10-28 00:14:00,47.1,24.4,29.22,North,-999,-999.0,-999.0,37,0.19,,,-99.99,0.0,Linux-Irox,2013-10-28 07:14:00,
2013-10-28 00:24:00,46.9,24.3,29.22,North,-999,-999.0,-999.0,37,0.28,,,-99.99,0.0,Linux-Irox,2013-10-28 07:24:00,
2013-10-28 00:34:00,46.6,24.6,29.22,North,-999,-999.0,-999.0,39,0.30,,,-99.99,0.0,Linux-Irox,2013-10-28 07:34:00,
2013-10-28 00:44:00,46.4,26.2,29.21,North,-999,-999.0,-999.0,44,0.33,,,-99.99,0.0,Linux-Irox,2013-10-28 07:44:00,
2013-10-28 00:54:00,45.0,25.9,29.21,North,-999,-999.0,-999.0,47,0.33,,,-99.99,0.0,Linux-Irox,2013-10-28 07:54:00,
2013-10-28 01:04:00,44.8,26.8,29.21,North,-999,-999.0,-999.0,50,0.33,,,-99.99,0.0,Linux-Irox,2013-10-28 08:04:00,
2013-10-28 01:14:00,45.0,27.3,29.21,North,-999,-999.0,-999.0,51,0.30,,,-99.99,0.0,Linux-Irox,2013-10-28 08:14:00,
2013-10-28 01:24:00,44.2,27.0,29.22,North,-999,-999.0,-999.0,52,0.14,,,-99.99,0.0,Linux-Irox,2013-10-28 08:24:00,
2013-10-28 01:34:00,44.2,27.3,29.22,North,-999,-999.0,-999.0,53,0.05,,,-99.99,0.0,Linux-Irox,2013-10-28 08:34:00,
2013-10-28 01:44:00,44.8,28.6,29.22,North,-999,-999.0,-999.0,55,0.03,,,-99.99,0.0,Linux-Irox,2013-10-28 08:44:00,
2013-10-28 01:54:00,45.3,29.5,29.22,North,-999,-999.0,-999.0,56,0.00,,,-99.99,0.0,Linux-Irox,2013-10-28 08:54:00,
2013-10-28 02:04:00,45.1,28.9,29.23,North,-999,-999.0,-999.0,55,0.00,,,-99.99,0.0,Linux-Irox,2013-10-28 09:04:00,
2013-10-28 02:14:00,45.3,29.5,29.23,North,-999,-999.0,-999.0,56,0.00,,,-99.99,0.0,Linux-Irox,2013-10-28 09:14:00,
2013-10-28 02:24:00,45.9,30.4,29.23,North,-999,-999.0,-999.0,57,0.00,,,-99.99,0.0,Linux-Irox,2013-10-28 09:24:00,
2013-10-28 02:34:00,45.5,30.0,29.23,North,-999,-999.0,-999.0,57,0.00,,,-99.99,0.0,Linux-Irox,2013-10-28 09:34:00,
2013-10-28 02:44:00,45.9,30.4,29.23,North,-999,-999.0,-999.0,57,0.00,,,-99.99,0.0,Linux-Irox,2013-10-28 09:44:00,
2013-10-28 02:54:00,45.7,30.2,29.23,North,-999,-999.0,-999.0,57,0.00,,,-99.99,0.0,Linux-Irox,2013-10-28 09:54:00,
2013-10-28 03:04:00,45.9,30.4,29.24,North,-999,-999.0,-999.0,57,0.00,,,-99.99,0.0,Linux-Irox,2013-10-28 10:04:00,
2013-10-28 03:14:00,45.7,30.2,29.24,North,-999,-999.0,-999.0,57,0.00,,,-99.99,0.0,Linux-Irox,2013-10-28 10:14:00,
2013-10-28 03:24:00,46.2,31.1,29.24,North,-999,-999.0,-999.0,58,0.00,,,-99.99,0.0,Linux-Irox,2013-10-28 10:24:00,
2013-10-28 03:34:00,46.0,30.9,29.24,North,-999,-999.0,-999.0,58,0.00,,,-99.99,0.0,Linux-Irox,2013-10-28 10:34:00,
2013-10-28 03:44:00,46.0,31.3,29.24,North,-999,-999.0,-999.0,59,0.00,,,-99.99,0.0,Linux-Irox,2013-10-28 10:44:00,
2013-10-28 03:54:00,46.2,31.5,29.24,North,-999,-999.0,-999.0,59,0.00,,,-99.99,0.0,Linux-Irox,2013-10-28 10:54:00,
2013-10-28 04:04:00,46.4,31.6,29.23,North,-999,-999.0,-999.0,59,0.00,,,-99.99,0.0,Linux-Irox,2013-10-28 11:04:00,
2013-10-28 04:14:00,46.6,32.2,29.23,North,-999,-999.0,-999.0,60,0.00,,,-99.99,0.0,Linux-Irox,2013-10-28 11:14:00,
2013-10-28 04:24:00,46.6,32.2,29.24,North,-999,-999.0,-999.0,60,0.00,,,-99.99,0.0,Linux-Irox,2013-10-28 11:24:00,
2013-10-28 04:34:00,46.6,32.2,29.24,North,-999,-999.0,-999.0,60,0.00,,,-99.99,0.0,Linux-Irox,2013-10-28 11:34:00,
2013-10-28 04:44:00,46.8,32.4,29.24,North,-999,-999.0,-999.0,60,0.00,,,-99.99,0.0,Linux-Irox,2013-10-28 11:44:00,
2013-10-28 04:54:00,46.6,32.2,29.24,North,-999,-999.0,-999.0,60,0.00,,,-99.99,0.0,Linux-Irox,2013-10-28 11:54:00,
2013-10-28 05:04:00,46.4,32.0,29.25,North,-999,-999.0,-999.0,60,0.00,,,-99.99,0.0,Linux-Irox,2013-10-28 12:04:00,
2013-10-28 05:14:00,46.6,32.2,29.25,North,-999,-999.0,-999.0,60,0.00,,,-99.99,0.0,Linux-Irox,2013-10-28 12:14:00,
2013-10-28 05:24:00,46.4,32.0,29.25,North,-999,-999.0,-999.0,60,0.00,,,-99.99,0.0,Linux-Irox,2013-10-28 12:24:00,
2013-10-28 05:34:00,46.6,32.2,29.25,North,-999,-999.0,-999.0,60,0.00,,,-99.99,0.0,Linux-Irox,2013-10-28 12:34:00,
2013-10-28 05:44:00,46.8,32.4,29.25,North,-999,-999.0,-999.0,60,0.00,,,-99.99,0.0,Linux-Irox,2013-10-28 12:44:00,
2013-10-28 05:54:00,46.8,32.7,29.25,North,-999,-999.0,-999.0,61,0.00,,,-99.99,0.0,Linux-Irox,2013-10-28 12:54:00,
2013-10-28 06:04:00,46.8,32.4,29.25,North,-999,-999.0,-999.0,60,0.00,,,-99.99,0.0,Linux-Irox,2013-10-28 13:04:00,
2013-10-28 06:14:00,46.8,32.4,29.25,North,-999,-999.0,-999.0,60,0.00,,,-99.99,0.0,Linux-Irox,2013-10-28 13:14:00,
2013-10-28 06:16:00,46.8,32.4,29.26,North,-999,-999.0,-999.0,60,0.00,,,-99.99,0.0,Linux-Irox,2013-10-28 13:16:00,
2013-10-28 06:24:00,46.6,32.2,29.26,North,-999,-999.0,-999.0,60,0.00,,,-99.99,0.0,Linux-Irox,2013-10-28 13:24:00,
2013-10-28 06:31:00,46.6,32.2,29.26,North,-999,-999.0,-999.0,60,0.00,,,-99.99,0.0,Linux-Irox,2013-10-28 13:31:00,
2013-10-28 06:34:00,46.6,32.2,29.26,North,-999,-999.0,-999.0,60,0.00,,,-99.99,0.0,Linux-Irox,2013-10-28 13:34:00,
2013-10-28 06:44:00,46.6,32.2,29.25,North,-999,-999.0,-999.0,60,0.00,,,-99.99,0.0,Linux-Irox,2013-10-28 13:44:00,
2013-10-28 06:46:00,46.6,32.2,29.25,North,-999,-999.0,-999.0,60,0.00,,,-99.99,0.0,Linux-Irox,2013-10-28 13:46:00,
2013-10-28 06:54:00,46.2,31.8,29.25,North,-999,-999.0,-999.0,60,0.00,,,-99.99,0.0,Linux-Irox,2013-10-28 13:54:00,
2013-10-28 07:01:00,46.4,32.0,29.25,North,-999,-999.0,-999.0,60,0.00,,,-99.99,0.0,Linux-Irox,2013-10-28 14:01:00,
2013-10-28 07:04:00,46.4,32.0,29.25,North,-999,-999.0,-999.0,60,0.00,,,-99.99,0.0,Linux-Irox,2013-10-28 14:04:00,
2013-10-28 07:14:00,46.4,32.0,29.25,North,-999,-999.0,-999.0,60,0.00,,,-99.99,0.0,Linux-Irox,2013-10-28 14:14:00,
2013-10-28 07:16:00,46.6,32.2,29.26,North,-999,-999.0,-999.0,60,0.00,,,-99.99,0.0,Linux-Irox,2013-10-28 14:16:00,
2013-10-28 07:24:00,46.6,32.5,29.26,North,-999,-999.0,-999.0,61,0.00,,,-99.99,0.0,Linux-Irox,2013-10-28 14:24:00,
2013-10-28 07:31:00,46.4,32.0,29.26,North,-999,-999.0,-999.0,60,0.00,,,-99.99,0.0,Linux-Irox,2013-10-28 14:31:00,
2013-10-28 07:34:00,46.4,32.0,29.26,North,-999,-999.0,-999.0,60,0.00,,,-99.99,0.0,Linux-Irox,2013-10-28 14:34:00,
2013-10-28 07:44:00,46.6,32.5,29.27,North,-999,-999.0,-999.0,61,0.00,,,-99.99,0.0,Linux-Irox,2013-10-28 14:44:00,
2013-10-28 07:46:00,46.6,32.5,29.27,North,-999,-999.0,-999.0,61,0.00,,,-99.99,0.0,Linux-Irox,2013-10-28 14:46:00,
2013-10-28 07:54:00,46.4,32.0,29.27,North,-999,-999.0,-999.0,60,0.00,,,-99.99,0.0,Linux-Irox,2013-10-28 14:54:00,
2013-10-28 08:01:00,46.6,32.2,29.27,North,-999,-999.0,-999.0,60,0.00,,,-99.99,0.0,Linux-Irox,2013-10-28 15:01:00,
2013-10-28 08:04:00,46.6,32.2,29.27,North,-999,-999.0,-999.0,60,0.00,,,-99.99,0.0,Linux-Irox,2013-10-28 15:04:00,
2013-10-28 08:09:00,46.6,32.2,29.27,North,-999,-999.0,-999.0,60,0.00,,,-99.99,0.0,Linux-Irox,2013-10-28 15:09:00,
2013-10-28 08:14:00,46.8,32.7,29.27,North,-999,-999.0,-999.0,61,0.00,,,-99.99,0.0,Linux-Irox,2013-10-28 15:14:00,
2013-10-28 08:16:00,46.9,32.9,29.28,North,-999,-999.0,-999.0,61,0.00,,,-99.99,0.0,Linux-Irox,2013-10-28 15:16:00,
2013-10-28 08:24:00,47.1,33.1,29.28,North,-999,-999.0,-999.0,61,0.00,,,-99.99,0.0,Linux-Irox,2013-10-28 15:24:00,
2013-10-28 08:31:00,46.9,32.9,29.28,North,-999,-999.0,-999.0,61,0.00,,,-99.99,0.0,Linux-Irox,2013-10-28 15:31:00,
2013-10-28 08:34:00,46.9,32.9,29.28,North,-999,-999.0,-999.0,61,0.00,,,-99.99,0.0,Linux-Irox,2013-10-28 15:34:00,
2013-10-28 08:44:00,47.1,32.7,29.29,North,-999,-999.0,-999.0,60,0.00,,,-99.99,0.0,Linux-Irox,2013-10-28 15:44:00,
2013-10-28 08:46:00,46.8,32.4,29.29,North,-999,-999.0,-999.0,60,0.00,,,-99.99,0.0,Linux-Irox,2013-10-28 15:46:00,
2013-10-28 08:54:00,46.9,32.5,29.29,North,-999,-999.0,-999.0,60,0.00,,,-99.99,0.0,Linux-Irox,2013-10-28 15:54:00,
2013-10-28 09:01:00,47.1,32.7,29.29,North,-999,-999.0,-999.0,60,0.00,,,-99.99,0.0,Linux-Irox,2013-10-28 16:01:00,
2013-10-28 09:04:00,47.1,32.7,29.29,North,-999,-999.0,-999.0,60,0.00,,,-99.99,0.0,Linux-Irox,2013-10-28 16:04:00,
2013-10-28 09:14:00,47.1,32.7,29.29,North,-999,-999.0,-999.0,60,0.00,,,-99.99,0.0,Linux-Irox,2013-10-28 16:14:00,
2013-10-28 09:16:00,47.1,32.7,29.30,North,-999,-999.0,-999.0,60,0.00,,,-99.99,0.0,Linux-Irox,2013-10-28 16:16:00,
2013-10-28 09:24:00,47.5,33.1,29.30,North,-999,-999.0,-999.0,60,0.00,,,-99.99,0.0,Linux-Irox,2013-10-28 16:24:00,
2013-10-28 09:31:00,47.7,33.3,29.30,North,-999,-999.0,-999.0,60,0.00,,,-99.99,0.0,Linux-Irox,2013-10-28 16:31:00,
2013-10-28 09:34:00,47.5,33.1,29.30,North,-999,-999.0,-999.0,60,0.00,,,-99.99,0.0,Linux-Irox,2013-10-28 16:34:00,
2013-10-28 09:44:00,47.7,33.3,29.31,North,-999,-999.0,-999.0,60,0.00,,,-99.99,0.0,Linux-Irox,2013-10-28 16:44:00,
2013-10-28 09:46:00,47.8,33.4,29.31,North,-999,-999.0,-999.0,60,0.00,,,-99.99,0.0,Linux-Irox,2013-10-28 16:46:00,
2013-10-28 09:54:00,48.9,34.2,29.31,North,-999,-999.0,-999.0,59,0.00,,,-99.99,0.0,Linux-Irox,2013-10-28 16:54:00,
2013-10-28 10:01:00,48.6,33.8,29.32,North,-999,-999.0,-999.0,59,0.00,,,-99.99,0.0,Linux-Irox,2013-10-28 17:01:00,
2013-10-28 10:04:00,48.7,34.0,29.32,North,-999,-999.0,-999.0,59,0.00,,,-99.99,0.0,Linux-Irox,2013-10-28 17:04:00,
2013-10-28 10:14:00,48.4,33.3,29.32,North,-999,-999.0,-999.0,58,0.00,,,-99.99,0.0,Linux-Irox,2013-10-28 17:14:00,
2013-10-28 10:16:00,48.7,33.6,29.31,North,-999,-999.0,-999.0,58,0.00,,,-99.99,0.0,Linux-Irox,2013-10-28 17:16:00,
2013-10-28 10:24:00,49.8,35.1,29.31,North,-999,-999.0,-999.0,59,0.00,,,-99.99,0.0,Linux-Irox,2013-10-28 17:24:00,
2013-10-28 10:31:00,50.4,36.0,29.31,North,-999,-999.0,-999.0,60,0.00,,,-99.99,0.0,Linux-Irox,2013-10-28 17:31:00,
2013-10-28 10:34:00,50.2,35.4,29.31,North,-999,-999.0,-999.0,59,0.00,,,-99.99,0.0,Linux-Irox,2013-10-28 17:34:00,
2013-10-28 10:44:00,50.5,35.8,29.31,North,-999,-999.0,-999.0,59,0.00,,,-99.99,0.0,Linux-Irox,2013-10-28 17:44:00,
2013-10-28 10:46:00,50.9,36.1,29.31,North,-999,-999.0,-999.0,59,0.00,,,-99.99,0.0,Linux-Irox,2013-10-28 17:46:00,
2013-10-28 10:54:00,51.1,36.7,29.31,North,-999,-999.0,-999.0,60,0.00,,,-99.99,0.0,Linux-Irox,2013-10-28 17:54:00,
2013-10-28 11:01:00,51.1,36.0,29.32,North,-999,-999.0,-999.0,58,0.00,,,-99.99,0.0,Linux-Irox,2013-10-28 18:01:00,
2013-10-28 11:04:00,51.6,36.9,29.32,North,-999,-999.0,-999.0,59,0.00,,,-99.99,0.0,Linux-Irox,2013-10-28 18:04:00,
2013-10-28 11:14:00,51.8,37.0,29.32,North,-999,-999.0,-999.0,59,0.00,,,-99.99,0.0,Linux-Irox,2013-10-28 18:14:00,
2013-10-28 11:16:00,51.8,37.0,29.32,North,-999,-999.0,-999.0,59,0.00,,,-99.99,0.0,Linux-Irox,2013-10-28 18:16:00,
2013-10-28 11:24:00,52.2,37.4,29.32,North,-999,-999.0,-999.0,59,0.00,,,-99.99,0.0,Linux-Irox,2013-10-28 18:24:00,
2013-10-28 11:31:00,52.7,37.6,29.32,North,-999,-999.0,-999.0,58,0.00,,,-99.99,0.0,Linux-Irox,2013-10-28 18:31:00,
2013-10-28 11:34:00,53.2,38.1,29.32,North,-999,-999.0,-999.0,58,0.00,,,-99.99,0.0,Linux-Irox,2013-10-28 18:34:00,
2013-10-28 11:44:00,54.7,39.6,29.32,North,-999,-999.0,-999.0,58,0.00,,,-99.99,0.0,Linux-Irox,2013-10-28 18:44:00,
2013-10-28 11:46:00,54.3,39.2,29.32,North,-999,-999.0,-999.0,58,0.00,,,-99.99,0.0,Linux-Irox,2013-10-28 18:46:00,
2013-10-28 11:54:00,54.3,38.8,29.32,North,-999,-999.0,-999.0,57,0.00,,,-99.99,0.0,Linux-Irox,2013-10-28 18:54:00,
2013-10-28 12:01:00,54.3,37.0,29.32,North,-999,-999.0,-999.0,52,0.00,,,-99.99,0.0,Linux-Irox,2013-10-28 19:01:00,
2013-10-28 12:04:00,54.3,37.0,29.32,North,-999,-999.0,-999.0,52,0.00,,,-99.99,0.0,Linux-Irox,2013-10-28 19:04:00,
2013-10-28 12:14:00,53.8,35.1,29.32,North,-999,-999.0,-999.0,48,0.00,,,-99.99,0.0,Linux-Irox,2013-10-28 19:14:00,
2013-10-28 12:16:00,53.8,35.4,29.32,North,-999,-999.0,-999.0,49,0.00,,,-99.99,0.0,Linux-Irox,2013-10-28 19:16:00,
2013-10-28 12:24:00,54.3,36.0,29.32,North,-999,-999.0,-999.0,49,0.00,,,-99.99,0.0,Linux-Irox,2013-10-28 19:24:00,
2013-10-28 12:31:00,54.3,35.2,29.32,North,-999,-999.0,-999.0,47,0.00,,,-99.99,0.0,Linux-Irox,2013-10-28 19:31:00,
2013-10-28 12:34:00,54.3,34.2,29.32,North,-999,-999.0,-999.0,44,0.00,,,-99.99,0.0,Linux-Irox,2013-10-28 19:34:00,
2013-10-28 12:44:00,54.9,35.1,29.31,North,-999,-999.0,-999.0,45,0.00,,,-99.99,0.0,Linux-Irox,2013-10-28 19:44:00,
2013-10-28 12:46:00,55.2,35.4,29.31,North,-999,-999.0,-999.0,45,0.00,,,-99.99,0.0,Linux-Irox,2013-10-28 19:46:00,
2013-10-28 12:54:00,54.9,32.9,29.31,North,-999,-999.0,-999.0,39,0.00,,,-99.99,0.0,Linux-Irox,2013-10-28 19:54:00,
2013-10-28 13:01:00,55.2,32.9,29.32,North,-999,-999.0,-999.0,38,0.00,,,-99.99,0.0,Linux-Irox,2013-10-28 20:01:00,
2013-10-28 13:04:00,55.4,31.6,29.32,North,-999,-999.0,-999.0,34,0.00,,,-99.99,0.0,Linux-Irox,2013-10-28 20:04:00,
2013-10-28 13:14:00,55.6,30.4,29.32,North,-999,-999.0,-999.0,30,0.00,,,-99.99,0.0,Linux-Irox,2013-10-28 20:14:00,
2013-10-28 13:16:00,55.6,30.4,29.32,North,-999,-999.0,-999.0,30,0.00,,,-99.99,0.0,Linux-Irox,2013-10-28 20:16:00,
2013-10-28 13:24:00,55.2,30.0,29.32,North,-999,-999.0,-999.0,30,0.00,,,-99.99,0.0,Linux-Irox,2013-10-28 20:24:00,
2013-10-28 13:31:00,54.9,27.5,29.32,North,-999,-999.0,-999.0,24,0.00,,,-99.99,0.0,Linux-Irox,2013-10-28 20:31:00,
2013-10-28 13:34:00,54.7,27.3,29.32,North,-999,-999.0,-999.0,24,0.00,,,-99.99,0.0,Linux-Irox,2013-10-28 20:34:00,
2013-10-28 13:44:00,54.3,25.9,29.31,North,-999,-999.0,-999.0,21,0.00,,,-99.99,0.0,Linux-Irox,2013-10-28 20:44:00,
2013-10-28 13:46:00,54.1,25.7,29.31,North,-999,-999.0,-999.0,21,0.00,,,-99.99,0.0,Linux-Irox,2013-10-28 20:46:00,
2013-10-28 13:54:00,54.0,24.4,29.31,North,-999,-999.0,-999.0,18,0.00,,,-99.99,0.0,Linux-Irox,2013-10-28 20:54:00,
2013-10-28 14:01:00,54.1,24.6,29.31,North,-999,-999.0,-999.0,18,0.00,,,-99.99,0.0,Linux-Irox,2013-10-28 21:01:00,
2013-10-28 14:04:00,54.0,23.4,29.31,North,-999,-999.0,-999.0,15,0.00,,,-99.99,0.0,Linux-Irox,2013-10-28 21:04:00,
2013-10-28 14:14:00,53.2,21.6,29.31,North,-999,-999.0,-999.0,12,0.00,,,-99.99,0.0,Linux-Irox,2013-10-28 21:14:00,
2013-10-28 14:16:00,53.2,21.6,29.31,North,-999,-999.0,-999.0,12,0.00,,,-99.99,0.0,Linux-Irox,2013-10-28 21:16:00,
2013-10-28 14:24:00,53.6,22.3,29.31,North,-999,-999.0,-999.0,13,0.00,,,-99.99,0.0,Linux-Irox,2013-10-28 21:24:00,
2013-10-28 14:31:00,53.6,22.3,29.31,North,-999,-999.0,-999.0,13,0.00,,,-99.99,0.0,Linux-Irox,2013-10-28 21:31:00,
2013-10-28 14:34:00,53.8,22.5,29.31,North,-999,-999.0,-999.0,13,0.00,,,-99.99,0.0,Linux-Irox,2013-10-28 21:34:00,
2013-10-28 14:44:00,52.9,21.2,29.32,North,-999,-999.0,-999.0,12,0.00,,,-99.99,0.0,Linux-Irox,2013-10-28 21:44:00,
2013-10-28 14:46:00,52.7,21.0,29.32,North,-999,-999.0,-999.0,12,0.00,,,-99.99,0.0,Linux-Irox,2013-10-28 21:46:00,
2013-10-28 14:54:00,51.8,22.6,29.32,North,-999,-999.0,-999.0,19,0.00,,,-99.99,0.0,Linux-Irox,2013-10-28 21:54:00,
2013-10-28 15:01:00,51.6,23.2,29.32,North,-999,-999.0,-999.0,21,0.00,,,-99.99,0.0,Linux-Irox,2013-10-28 22:01:00,
2013-10-28 15:04:00,52.2,23.7,29.32,North,-999,-999.0,-999.0,21,0.00,,,-99.99,0.0,Linux-Irox,2013-10-28 22:04:00,
2013-10-28 15:14:00,51.8,23.7,29.32,North,-999,-999.0,-999.0,22,0.00,,,-99.99,0.0,Linux-Irox,2013-10-28 22:14:00,
2013-10-28 15:16:00,51.8,23.4,29.32,North,-999,-999.0,-999.0,21,0.00,,,-99.99,0.0,Linux-Irox,2013-10-28 22:16:00,
2013-10-28 15:24:00,52.2,23.7,29.32,North,-999,-999.0,-999.0,21,0.00,,,-99.99,0.0,Linux-Irox,2013-10-28 22:24:00,
2013-10-28 15:31:00,52.3,23.9,29.32,North,-999,-999.0,-999.0,21,0.00,,,-99.99,0.0,Linux-Irox,2013-10-28 22:31:00,
2013-10-28 15:34:00,52.5,24.1,29.32,North,-999,-999.0,-999.0,21,0.00,,,-99.99,0.0,Linux-Irox,2013-10-28 22:34:00,
2013-10-28 15:44:00,52.3,23.9,29.32,North,-999,-999.0,-999.0,21,0.00,,,-99.99,0.0,Linux-Irox,2013-10-28 22:44:00,
2013-10-28 15:46:00,52.5,24.1,29.32,North,-999,-999.0,-999.0,21,0.00,,,-99.99,0.0,Linux-Irox,2013-10-28 22:46:00,
2013-10-28 15:54:00,52.3,23.9,29.32,North,-999,-999.0,-999.0,21,0.00,,,-99.99,0.0,Linux-Irox,2013-10-28 22:54:00,
2013-10-28 16:01:00,51.8,23.0,29.33,North,-999,-999.0,-999.0,20,0.00,,,-99.99,0.0,Linux-Irox,2013-10-28 23:01:00,
2013-10-28 16:04:00,51.6,23.2,29.33,North,-999,-999.0,-999.0,21,0.00,,,-99.99,0.0,Linux-Irox,2013-10-28 23:04:00,
2013-10-28 16:14:00,51.3,22.8,29.33,North,-999,-999.0,-999.0,21,0.00,,,-99.99,0.0,Linux-Irox,2013-10-28 23:14:00,
2013-10-28 16:16:00,51.1,22.6,29.34,North,-999,-999.0,-999.0,21,0.00,,,-99.99,0.0,Linux-Irox,2013-10-28 23:16:00,
2013-10-28 16:24:00,51.1,22.6,29.34,North,-999,-999.0,-999.0,21,0.00,,,-99.99,0.0,Linux-Irox,2013-10-28 23:24:00,
2013-10-28 16:31:00,50.9,22.8,29.34,North,-999,-999.0,-999.0,22,0.00,,,-99.99,0.0,Linux-Irox,2013-10-28 23:31:00,
2013-10-28 16:34:00,50.9,22.5,29.34,North,-999,-999.0,-999.0,21,0.00,,,-99.99,0.0,Linux-Irox,2013-10-28 23:34:00,
2013-10-28 16:44:00,50.5,22.1,29.34,North,-999,-999.0,-999.0,21,0.00,,,-99.99,0.0,Linux-Irox,2013-10-28 23:44:00,
2013-10-28 16:46:00,50.5,22.1,29.34,North,-999,-999.0,-999.0,21,0.00,,,-99.99,0.0,Linux-Irox,2013-10-28 23:46:00,
2013-10-28 16:54:00,50.4,21.9,29.34,North,-999,-999.0,-999.0,21,0.00,,,-99.99,0.0,Linux-Irox,2013-10-28 23:54:00,
2013-10-28 17:01:00,50.4,21.9,29.34,North,-999,-999.0,-999.0,21,0.00,,,-99.99,0.0,Linux-Irox,2013-10-29 00:01:00,
2013-10-28 17:04:00,50.4,21.9,29.34,North,-999,-999.0,-999.0,21,0.03,,,-99.99,0.0,Linux-Irox,2013-10-29 00:04:00,
2013-10-28 17:14:00,50.0,22.6,29.34,North,-999,-999.0,-999.0,24,0.03,,,-99.99,0.0,Linux-Irox,2013-10-29 00:14:00,
2013-10-28 17:16:00,49.8,22.5,29.34,North,-999,-999.0,-999.0,24,0.03,,,-99.99,0.0,Linux-Irox,2013-10-29 00:16:00,
2013-10-28 17:24:00,49.6,22.3,29.34,North,-999,-999.0,-999.0,24,0.03,,,-99.99,0.0,Linux-Irox,2013-10-29 00:24:00,
2013-10-28 17:31:00,49.3,22.3,29.34,North,-999,-999.0,-999.0,25,0.03,,,-99.99,0.0,Linux-Irox,2013-10-29 00:31:00,
2013-10-28 17:34:00,49.1,22.5,29.34,North,-999,-999.0,-999.0,26,0.03,,,-99.99,0.0,Linux-Irox,2013-10-29 00:34:00,
2013-10-28 17:44:00,49.1,23.5,29.34,North,-999,-999.0,-999.0,29,0.03,,,-99.99,0.0,Linux-Irox,2013-10-29 00:44:00,
2013-10-28 17:46:00,48.9,23.4,29.34,North,-999,-999.0,-999.0,29,0.03,,,-99.99,0.0,Linux-Irox,2013-10-29 00:46:00,
2013-10-28 17:54:00,48.7,23.9,29.34,North,-999,-999.0,-999.0,31,0.03,,,-99.99,0.0,Linux-Irox,2013-10-29 00:54:00,
2013-10-28 18:01:00,48.4,23.9,29.35,North,-999,-999.0,-999.0,32,0.03,,,-99.99,0.0,Linux-Irox,2013-10-29 01:01:00,
2013-10-28 18:04:00,48.2,23.7,29.35,North,-999,-999.0,-999.0,32,0.03,,,-99.99,0.0,Linux-Irox,2013-10-29 01:04:00,
2013-10-28 18:14:00,47.8,24.1,29.35,North,-999,-999.0,-999.0,34,0.00,,,-99.99,0.0,Linux-Irox,2013-10-29 01:14:00,
2013-10-28 18:16:00,47.8,24.1,29.35,North,-999,-999.0,-999.0,34,0.00,,,-99.99,0.0,Linux-Irox,2013-10-29 01:16:00,
2013-10-28 18:24:00,47.8,24.8,29.35,North,-999,-999.0,-999.0,36,0.00,,,-99.99,0.0,Linux-Irox,2013-10-29 01:24:00,
2013-10-28 18:31:00,47.8,25.2,29.35,North,-999,-999.0,-999.0,37,0.00,,,-99.99,0.0,Linux-Irox,2013-10-29 01:31:00,
2013-10-28 18:34:00,47.7,25.0,29.35,North,-999,-999.0,-999.0,37,0.00,,,-99.99,0.0,Linux-Irox,2013-10-29 01:34:00,
2013-10-28 18:44:00,47.5,24.4,29.35,North,-999,-999.0,-999.0,36,0.00,,,-99.99,0.0,Linux-Irox,2013-10-29 01:44:00,
2013-10-28 18:46:00,47.5,24.8,29.35,North,-999,-999.0,-999.0,37,0.00,,,-99.99,0.0,Linux-Irox,2013-10-29 01:46:00,
2013-10-28 18:54:00,47.5,24.4,29.35,North,-999,-999.0,-999.0,36,0.00,,,-99.99,0.0,Linux-Irox,2013-10-29 01:54:00,
2013-10-28 19:01:00,47.5,24.4,29.35,North,-999,-999.0,-999.0,36,0.00,,,-99.99,0.0,Linux-Irox,2013-10-29 02:01:00,
2013-10-28 19:04:00,47.7,24.6,29.35,North,-999,-999.0,-999.0,36,0.00,,,-99.99,0.0,Linux-Irox,2013-10-29 02:04:00,
2013-10-28 19:14:00,47.7,24.3,29.35,North,-999,-999.0,-999.0,35,0.00,,,-99.99,0.0,Linux-Irox,2013-10-29 02:14:00,
2013-10-28 19:16:00,47.7,24.3,29.36,North,-999,-999.0,-999.0,35,0.00,,,-99.99,0.0,Linux-Irox,2013-10-29 02:16:00,
2013-10-28 19:24:00,47.8,24.1,29.36,North,-999,-999.0,-999.0,34,0.00,,,-99.99,0.0,Linux-Irox,2013-10-29 02:24:00,
2013-10-28 19:31:00,47.8,24.1,29.36,North,-999,-999.0,-999.0,34,0.00,,,-99.99,0.0,Linux-Irox,2013-10-29 02:31:00,
2013-10-28 19:34:00,47.8,23.7,29.36,North,-999,-999.0,-999.0,33,0.00,,,-99.99,0.0,Linux-Irox,2013-10-29 02:34:00,
2013-10-28 19:44:00,47.8,23.4,29.37,North,-999,-999.0,-999.0,32,0.00,,,-99.99,0.0,Linux-Irox,2013-10-29 02:44:00,
2013-10-28 19:46:00,47.8,23.4,29.37,North,-999,-999.0,-999.0,32,0.00,,,-99.99,0.0,Linux-Irox,2013-10-29 02:46:00,
2013-10-28 19:54:00,47.8,23.4,29.37,North,-999,-999.0,-999.0,32,0.00,,,-99.99,0.0,Linux-Irox,2013-10-29 02:54:00,
2013-10-28 20:01:00,47.5,23.4,29.36,North,-999,-999.0,-999.0,33,0.00,,,-99.99,0.0,Linux-Irox,2013-10-29 03:01:00,
2013-10-28 20:04:00,47.3,23.2,29.36,North,-999,-999.0,-999.0,33,0.00,,,-99.99,0.0,Linux-Irox,2013-10-29 03:04:00,
2013-10-28 20:14:00,47.1,22.6,29.36,North,-999,-999.0,-999.0,32,0.00,,,-99.99,0.0,Linux-Irox,2013-10-29 03:14:00,
2013-10-28 20:16:00,46.9,22.5,29.36,North,-999,-999.0,-999.0,32,0.00,,,-99.99,0.0,Linux-Irox,2013-10-29 03:16:00,
2013-10-28 20:24:00,46.9,22.8,29.36,North,-999,-999.0,-999.0,33,0.00,,,-99.99,0.0,Linux-Irox,2013-10-29 03:24:00,
2013-10-28 20:34:00,47.1,23.0,29.36,North,-999,-999.0,-999.0,33,0.00,,,-99.99,0.0,Linux-Irox,2013-10-29 03:34:00,
2013-10-28 20:44:00,47.3,23.2,29.37,North,-999,-999.0,-999.0,33,0.00,,,-99.99,0.0,Linux-Irox,2013-10-29 03:44:00,
2013-10-28 20:54:00,47.3,23.5,29.37,North,-999,-999.0,-999.0,34,0.00,,,-99.99,0.0,Linux-Irox,2013-10-29 03:54:00,
2013-10-28 21:04:00,47.5,24.1,29.38,North,-999,-999.0,-999.0,35,0.00,,,-99.99,0.0,Linux-Irox,2013-10-29 04:04:00,
2013-10-28 21:14:00,47.3,23.2,29.38,North,-999,-999.0,-999.0,33,0.00,,,-99.99,0.0,Linux-Irox,2013-10-29 04:14:00,
2013-10-28 21:24:00,47.3,23.2,29.39,North,-999,-999.0,-999.0,33,0.00,,,-99.99,0.0,Linux-Irox,2013-10-29 04:24:00,
2013-10-28 21:34:00,47.5,23.0,29.39,North,-999,-999.0,-999.0,32,0.00,,,-99.99,0.0,Linux-Irox,2013-10-29 04:34:00,
2013-10-28 21:44:00,47.7,23.2,29.40,North,-999,-999.0,-999.0,32,0.00,,,-99.99,0.0,Linux-Irox,2013-10-29 04:44:00,
2013-10-28 21:54:00,47.8,23.4,29.40,North,-999,-999.0,-999.0,32,0.00,,,-99.99,0.0,Linux-Irox,2013-10-29 04:54:00,
2013-10-28 22:04:00,47.8,23.7,29.41,North,-999,-999.0,-999.0,33,0.00,,,-99.99,0.0,Linux-Irox,2013-10-29 05:04:00,
2013-10-28 22:14:00,47.8,23.7,29.41,North,-999,-999.0,-999.0,33,0.00,,,-99.99,0.0,Linux-Irox,2013-10-29 05:14:00,
2013-10-28 22:24:00,47.5,23.4,29.40,North,-999,-999.0,-999.0,33,0.00,,,-99.99,0.0,Linux-Irox,2013-10-29 05:24:00,
2013-10-28 22:34:00,47.7,23.2,29.40,North,-999,-999.0,-999.0,32,0.00,,,-99.99,0.0,Linux-Irox,2013-10-29 05:34:00,
2013-10-28 22:44:00,47.8,23.0,29.41,North,-999,-999.0,-999.0,31,0.00,,,-99.99,0.0,Linux-Irox,2013-10-29 05:44:00,
2013-10-28 22:54:00,47.8,22.6,29.41,North,-999,-999.0,-999.0,30,0.00,,,-99.99,0.0,Linux-Irox,2013-10-29 05:54:00,
2013-10-28 23:04:00,48.0,22.8,29.42,North,-999,-999.0,-999.0,30,0.00,,,-99.99,0.0,Linux-Irox,2013-10-29 06:04:00,
2013-10-28 23:14:00,47.8,23.0,29.42,North,-999,-999.0,-999.0,31,0.00,,,-99.99,0.0,Linux-Irox,2013-10-29 06:14:00,
2013-10-28 23:24:00,47.8,22.6,29.41,North,-999,-999.0,-999.0,30,0.00,,,-99.99,0.0,Linux-Irox,2013-10-29 06:24:00,
2013-10-28 23:34:00,48.0,22.5,29.41,North,-999,-999.0,-999.0,29,0.00,,,-99.99,0.0,Linux-Irox,2013-10-29 06:34:00,
2013-10-28 23:44:00,48.0,22.1,29.43,North,-999,-999.0,-999.0,28,0.00,,,-99.99,0.0,Linux-Irox,2013-10-29 06:44:00,
2013-10-28 23:54:00,48.2,21.9,29.43,North,-999,-999.0,-999.0,27,0.00,,,-99.99,0.0,Linux-Irox,2013-10-29 06:54:00,